Time;durP1;ratioP1;P1;durP2;ratioP2;P2;SDS_P1;SDS_P2;PMS_P1;PMS_P2;Temp;Humidity;BMP_temperature;BMP_pressure;BME280_temperature;BME280_humidity;BME280_pressure;Samples;Min_cycle;Max_cycle;Signal;HPM_P1;HPM_P2
2023/12/08 00:01:01;;;;;;;;;;;;;;;7.51;nan;101924.25;5043236;28;20044;-87
2023/12/08 00:03:26;;;;;;;;;;;;;;;7.47;nan;101917.69;5041557;28;20020;-86
2023/12/08 00:05:52;;;;;;;;;;;;;;;7.43;nan;101924.44;5044042;28;20519;-87
2023/12/08 00:08:18;;;;;;;;;;;;;;;7.41;nan;101916.66;5055048;28;19924;-86
2023/12/08 00:10:43;;;;;;;;;;;;;;;7.42;nan;101907.63;5046298;28;19925;-87
2023/12/08 00:13:08;;;;;;;;;;;;;;;7.45;nan;101914.41;5047777;28;19927;-87
2023/12/08 00:15:33;;;;;;;;;;;;;;;7.46;nan;101914.19;5036021;28;19928;-87
2023/12/08 00:17:59;;;;;;;;;;;;;;;7.45;nan;101917.88;5042107;28;19920;-86
2023/12/08 00:20:25;;;;;;;;;;;;;;;7.44;nan;101916.25;5043357;28;19924;-86
2023/12/08 00:22:51;;;;;;;;;;;;;;;7.42;nan;101910.28;5051569;28;20265;-86
2023/12/08 00:25:16;;;;;;;;;;;;;;;7.44;nan;101913.56;5039658;28;19932;-86
2023/12/08 00:27:42;;;;;;;;;;;;;;;7.46;nan;101908.03;5042167;28;19917;-86
2023/12/08 00:30:07;;;;;;;;;;;;;;;7.51;nan;101916.25;5044703;28;19928;-86
2023/12/08 00:32:33;;;;;;;;;;;;;;;7.53;nan;101912.38;5046204;28;20514;-87
2023/12/08 00:34:58;;;;;;;;;;;;;;;7.55;nan;101901.53;5040807;28;20007;-86
2023/12/08 00:37:25;;;;;;;;;;;;;;;7.58;nan;101912.63;5023669;28;20023;-86
2023/12/08 00:39:50;;;;;;;;;;;;;;;7.59;nan;101910.78;5047842;28;19971;-86
2023/12/08 00:42:15;;;;;;;;;;;;;;;7.58;nan;101912.63;5051939;28;19956;-87
2023/12/08 00:44:41;;;;;;;;;;;;;;;7.59;nan;101902.75;5044543;28;19924;-86
2023/12/08 00:47:06;;;;;;;;;;;;;;;7.62;nan;101906.88;5046233;28;20292;-87
2023/12/08 00:49:32;;;;;;;;;;;;;;;7.63;nan;101905.84;5051506;28;19978;-86
2023/12/08 00:51:57;;;;;;;;;;;;;;;7.64;nan;101905.66;5043309;28;19981;-86
2023/12/08 00:54:22;;;;;;;;;;;;;;;7.66;nan;101902.78;5043712;28;20292;-86
2023/12/08 00:56:48;;;;;;;;;;;;;;;7.67;nan;101894.56;5033546;28;20388;-87
2023/12/08 00:59:13;;;;;;;;;;;;;;;7.67;nan;101907.09;5042071;28;20385;-87
2023/12/08 01:01:38;;;;;;;;;;;;;;;7.58;nan;101896.59;5048851;28;20015;-87
2023/12/08 01:04:04;;;;;;;;;;;;;;;7.54;nan;101900.72;5042396;28;19967;-86
2023/12/08 01:06:29;;;;;;;;;;;;;;;7.55;nan;101904.19;5048863;28;19963;-87
2023/12/08 01:08:56;;;;;;;;;;;;;;;7.55;nan;101901.53;5040931;28;20193;-86
2023/12/08 01:11:22;;;;;;;;;;;;;;;7.60;nan;101906.25;5051129;28;19917;-87
2023/12/08 01:13:47;;;;;;;;;;;;;;;7.63;nan;101897.84;5047399;28;19928;-87
2023/12/08 01:16:12;;;;;;;;;;;;;;;7.62;nan;101891.69;5043977;28;19917;-87
2023/12/08 01:18:38;;;;;;;;;;;;;;;7.64;nan;101897.66;5046900;28;19921;-86
2023/12/08 01:21:03;;;;;;;;;;;;;;;7.64;nan;101892.31;5042866;28;20059;-86
2023/12/08 01:23:28;;;;;;;;;;;;;;;7.65;nan;101903.81;5049510;28;19920;-86
2023/12/08 01:25:54;;;;;;;;;;;;;;;7.67;nan;101901.75;5043688;28;20377;-87
2023/12/08 01:28:19;;;;;;;;;;;;;;;7.67;nan;101893.75;5046435;28;19920;-86
2023/12/08 01:30:44;;;;;;;;;;;;;;;7.67;nan;101886.56;5032448;28;19916;-86
2023/12/08 01:33:10;;;;;;;;;;;;;;;7.65;nan;101877.13;5042533;28;19923;-87
2023/12/08 01:35:35;;;;;;;;;;;;;;;7.64;nan;101870.16;5044350;28;19921;-87
2023/12/08 01:38:01;;;;;;;;;;;;;;;7.66;nan;101866.25;5045111;28;20397;-87
2023/12/08 01:40:26;;;;;;;;;;;;;;;7.66;nan;101874.25;5043604;28;20404;-86
2023/12/08 01:42:51;;;;;;;;;;;;;;;7.66;nan;101874.25;5047992;28;20011;-87
2023/12/08 01:45:17;;;;;;;;;;;;;;;7.63;nan;101876.50;5032332;28;20281;-86
2023/12/08 01:47:43;;;;;;;;;;;;;;;7.60;nan;101877.75;5048927;28;20446;-87
2023/12/08 01:50:09;;;;;;;;;;;;;;;7.58;nan;101864.59;5043845;28;20280;-86
2023/12/08 01:52:35;;;;;;;;;;;;;;;7.56;nan;101866.66;5024937;28;19917;-87
2023/12/08 01:55:01;;;;;;;;;;;;;;;7.58;nan;101866.44;5042291;28;19924;-86
2023/12/08 01:57:27;;;;;;;;;;;;;;;7.57;nan;101860.28;5045366;28;20338;-86
2023/12/08 01:59:54;;;;;;;;;;;;;;;7.61;nan;101865.22;5046595;28;19917;-87
2023/12/08 02:02:20;;;;;;;;;;;;;;;7.59;nan;101849.44;5048682;28;20440;-87
2023/12/08 02:04:47;;;;;;;;;;;;;;;7.63;nan;101849.84;5044599;28;20372;-85
2023/12/08 02:07:13;;;;;;;;;;;;;;;7.63;nan;101844.50;5039110;28;20007;-86
2023/12/08 02:09:38;;;;;;;;;;;;;;;7.63;nan;101837.31;5047250;28;20031;-87
2023/12/08 02:12:04;;;;;;;;;;;;;;;7.63;nan;101844.50;5039915;28;20008;-88
2023/12/08 02:14:30;;;;;;;;;;;;;;;7.60;nan;101835.06;5040879;28;19976;-87
2023/12/08 02:17:02;;;;;;;;;;;;;;;7.60;nan;101835.06;5041119;28;19968;-86
2023/12/08 02:19:29;;;;;;;;;;;;;;;7.59;nan;101833.41;5042261;28;19917;-87
2023/12/08 02:21:54;;;;;;;;;;;;;;;7.61;nan;101833.22;5043792;28;19935;-86
2023/12/08 02:24:19;;;;;;;;;;;;;;;7.63;nan;101818.66;5037315;28;19940;-86
2023/12/08 02:26:48;;;;;;;;;;;;;;;7.66;nan;101825.41;5046871;28;20403;-87
2023/12/08 02:29:14;;;;;;;;;;;;;;;7.69;nan;101825.00;5044988;28;19917;-86
2023/12/08 02:31:54;;;;;;;;;;;;;;;7.71;nan;101815.78;5041836;28;19970;-86
2023/12/08 02:34:22;;;;;;;;;;;;;;;7.74;nan;101818.06;5045920;28;19921;-87
2023/12/08 02:36:48;;;;;;;;;;;;;;;7.76;nan;101815.19;5044145;28;19986;-86
2023/12/08 02:39:16;;;;;;;;;;;;;;;7.73;nan;101820.94;5039349;28;20385;-86
2023/12/08 02:41:41;;;;;;;;;;;;;;;7.69;nan;101817.00;5049582;28;19924;-86
2023/12/08 02:44:07;;;;;;;;;;;;;;;7.67;nan;101811.88;5042306;28;19920;-86
2023/12/08 02:46:32;;;;;;;;;;;;;;;7.67;nan;101811.06;5048489;28;20438;-86
2023/12/08 02:48:57;;;;;;;;;;;;;;;7.62;nan;101809.00;5037050;28;20296;-87
2023/12/08 02:51:22;;;;;;;;;;;;;;;7.63;nan;101799.16;5042518;28;20435;-87
2023/12/08 02:53:48;;;;;;;;;;;;;;;7.65;nan;101797.09;5040131;28;20376;-87
2023/12/08 02:56:13;;;;;;;;;;;;;;;7.63;nan;101785.81;5045109;28;19963;-86
2023/12/08 02:58:38;;;;;;;;;;;;;;;7.59;nan;101788.09;5043223;28;19931;-87
2023/12/08 03:01:04;;;;;;;;;;;;;;;7.57;nan;101787.47;5038845;28;20007;-86
2023/12/08 03:03:29;;;;;;;;;;;;;;;7.58;nan;101791.78;5039267;28;19951;-86
2023/12/08 03:05:54;;;;;;;;;;;;;;;7.61;nan;101793.22;5043007;28;20016;-86
2023/12/08 03:08:20;;;;;;;;;;;;;;;7.63;nan;101785.81;5036738;28;19951;-86
2023/12/08 03:10:45;;;;;;;;;;;;;;;7.62;nan;101795.66;5040583;28;19921;-86
2023/12/08 03:13:10;;;;;;;;;;;;;;;7.60;nan;101799.56;5041128;28;19917;-86
2023/12/08 03:15:36;;;;;;;;;;;;;;;7.61;nan;101794.03;5043558;28;19921;-87
2023/12/08 03:18:01;;;;;;;;;;;;;;;7.60;nan;101797.72;5045614;28;20432;-86
2023/12/08 03:20:26;;;;;;;;;;;;;;;7.62;nan;101794.84;5040452;28;19917;-86
2023/12/08 03:22:52;;;;;;;;;;;;;;;7.62;nan;101792.19;5044806;28;19916;-86
2023/12/08 03:25:17;;;;;;;;;;;;;;;7.61;nan;101788.69;5045181;28;20306;-86
2023/12/08 03:27:42;;;;;;;;;;;;;;;7.61;nan;101798.53;5048578;28;20336;-87
2023/12/08 03:30:08;;;;;;;;;;;;;;;7.64;nan;101792.78;5046091;28;19979;-87
2023/12/08 03:32:33;;;;;;;;;;;;;;;7.68;nan;101792.19;5049404;28;19925;-86
2023/12/08 03:34:59;;;;;;;;;;;;;;;7.68;nan;101791.38;5046983;28;20381;-85
2023/12/08 03:37:25;;;;;;;;;;;;;;;7.67;nan;101801.22;5046735;28;19964;-87
2023/12/08 03:39:50;;;;;;;;;;;;;;;7.69;nan;101796.50;5044505;28;19924;-86
2023/12/08 03:42:16;;;;;;;;;;;;;;;7.69;nan;101795.66;5039596;28;19971;-86
2023/12/08 03:44:41;;;;;;;;;;;;;;;7.71;nan;101799.78;5046681;28;19917;-86
2023/12/08 03:47:06;;;;;;;;;;;;;;;7.66;nan;101799.56;5042869;28;19936;-87
2023/12/08 03:49:32;;;;;;;;;;;;;;;7.65;nan;101794.44;5030738;28;19917;-87
2023/12/08 03:51:57;;;;;;;;;;;;;;;7.65;nan;101789.09;5043847;28;19931;-86
2023/12/08 03:54:22;;;;;;;;;;;;;;;7.66;nan;101778.22;5040517;28;19923;-87
2023/12/08 03:56:47;;;;;;;;;;;;;;;7.71;nan;101785.63;5050285;28;19935;-87
2023/12/08 03:59:13;;;;;;;;;;;;;;;7.70;nan;101786.63;5044078;28;19917;-87
2023/12/08 04:01:38;;;;;;;;;;;;;;;7.69;nan;101785.00;5052761;28;19920;-86
2023/12/08 04:04:03;;;;;;;;;;;;;;;7.70;nan;101790.13;5045334;28;20451;-86
2023/12/08 04:06:29;;;;;;;;;;;;;;;7.71;nan;101777.63;5030936;28;20028;-86
2023/12/08 04:08:54;;;;;;;;;;;;;;;7.74;nan;101775.38;5038610;28;19921;-86
2023/12/08 04:11:19;;;;;;;;;;;;;;;7.74;nan;101761.22;5040267;28;19921;-86
2023/12/08 04:13:45;;;;;;;;;;;;;;;7.72;nan;101757.91;5039868;28;19920;-86
2023/12/08 04:16:10;;;;;;;;;;;;;;;7.68;nan;101762.03;5046692;28;20018;-87
2023/12/08 04:18:35;;;;;;;;;;;;;;;7.65;nan;101752.59;5048151;28;19924;-87
2023/12/08 04:21:01;;;;;;;;;;;;;;;7.68;nan;101756.69;5042360;28;19925;-87
2023/12/08 04:23:26;;;;;;;;;;;;;;;7.72;nan;101747.25;5038949;28;19928;-86
2023/12/08 04:25:51;;;;;;;;;;;;;;;7.72;nan;101752.56;5043907;28;20035;-86
2023/12/08 04:28:17;;;;;;;;;;;;;;;7.74;nan;101745.22;5047216;28;20043;-86
2023/12/08 04:30:42;;;;;;;;;;;;;;;7.72;nan;101744.56;5046379;28;19966;-86
2023/12/08 04:33:09;;;;;;;;;;;;;;;7.71;nan;101746.41;5044038;28;20015;-86
2023/12/08 04:35:34;;;;;;;;;;;;;;;7.72;nan;101749.91;5043320;28;19966;-87
2023/12/08 04:37:59;;;;;;;;;;;;;;;7.72;nan;101737.41;5036328;28;20457;-86
2023/12/08 04:40:25;;;;;;;;;;;;;;;7.71;nan;101729.59;5040253;28;19979;-87
2023/12/08 04:42:50;;;;;;;;;;;;;;;7.74;nan;101726.53;5043772;28;19921;-86
2023/12/08 04:45:16;;;;;;;;;;;;;;;7.75;nan;101714.84;5043590;28;19931;-86
2023/12/08 04:47:41;;;;;;;;;;;;;;;7.76;nan;101711.16;5045165;28;20656;-86
2023/12/08 04:50:07;;;;;;;;;;;;;;;7.76;nan;101714.63;5038995;28;19929;-86
2023/12/08 04:52:32;;;;;;;;;;;;;;;7.76;nan;101716.47;5047024;28;19920;-87
2023/12/08 04:54:58;;;;;;;;;;;;;;;7.77;nan;101718.13;5040682;28;19927;-86
2023/12/08 04:57:23;;;;;;;;;;;;;;;7.80;nan;101723.03;5041339;28;20508;-87
2023/12/08 04:59:49;;;;;;;;;;;;;;;7.82;nan;101726.31;5043387;28;19921;-87
2023/12/08 05:02:15;;;;;;;;;;;;;;;7.84;nan;101716.25;5042947;28;20583;-86
2023/12/08 05:04:41;;;;;;;;;;;;;;;7.85;nan;101720.56;5049435;28;19917;-87
2023/12/08 05:07:06;;;;;;;;;;;;;;;7.82;nan;101721.81;5042640;28;19936;-87
2023/12/08 05:09:31;;;;;;;;;;;;;;;7.82;nan;101727.16;5038965;28;19917;-85
2023/12/08 05:11:57;;;;;;;;;;;;;;;7.83;nan;101714.63;5044690;28;19925;-87
2023/12/08 05:14:23;;;;;;;;;;;;;;;7.83;nan;101718.09;5040720;28;20007;-87
2023/12/08 05:16:48;;;;;;;;;;;;;;;7.82;nan;101716.47;5043959;28;20628;-86
2023/12/08 05:19:14;;;;;;;;;;;;;;;7.80;nan;101723.88;5041429;28;19916;-87
2023/12/08 05:21:39;;;;;;;;;;;;;;;7.83;nan;101717.28;5039274;28;19921;-86
2023/12/08 05:24:05;;;;;;;;;;;;;;;7.82;nan;101710.31;5041536;28;19920;-87
2023/12/08 05:26:30;;;;;;;;;;;;;;;7.81;nan;101706.00;5047108;28;19927;-87
2023/12/08 05:28:56;;;;;;;;;;;;;;;7.78;nan;101699.25;5046737;28;19925;-87
2023/12/08 05:31:21;;;;;;;;;;;;;;;7.77;nan;101696.78;5038979;28;20011;-87
2023/12/08 05:33:46;;;;;;;;;;;;;;;7.74;nan;101692.69;5044914;28;19917;-86
2023/12/08 05:36:12;;;;;;;;;;;;;;;7.74;nan;101687.34;5045612;28;19921;-87
2023/12/08 05:38:37;;;;;;;;;;;;;;;7.73;nan;101679.56;5040541;28;20545;-87
2023/12/08 05:41:03;;;;;;;;;;;;;;;7.69;nan;101678.31;5029694;28;19923;-87
2023/12/08 05:43:28;;;;;;;;;;;;;;;7.63;nan;101685.28;5039758;28;19956;-87
2023/12/08 05:45:54;;;;;;;;;;;;;;;7.58;nan;101688.56;5041367;28;19935;-87
2023/12/08 05:48:19;;;;;;;;;;;;;;;7.56;nan;101687.16;5048055;28;19921;-87
2023/12/08 05:50:44;;;;;;;;;;;;;;;7.57;nan;101692.28;5027887;28;19917;-88
2023/12/08 05:53:10;;;;;;;;;;;;;;;7.60;nan;101683.03;5047635;28;20500;-87
2023/12/08 05:55:36;;;;;;;;;;;;;;;7.64;nan;101670.09;5042730;28;20695;-87
2023/12/08 05:58:01;;;;;;;;;;;;;;;7.66;nan;101668.06;5047913;28;20402;-87
2023/12/08 06:00:26;;;;;;;;;;;;;;;7.65;nan;101661.06;5032698;28;20007;-87
2023/12/08 06:02:52;;;;;;;;;;;;;;;7.65;nan;101666.41;5049278;28;19928;-87
2023/12/08 06:05:18;;;;;;;;;;;;;;;7.63;nan;101663.13;5052985;28;19939;-87
2023/12/08 06:07:43;;;;;;;;;;;;;;;7.62;nan;101656.97;5048691;28;19917;-88
2023/12/08 06:10:09;;;;;;;;;;;;;;;7.62;nan;101666.81;5037539;28;19929;-88
2023/12/08 06:12:34;;;;;;;;;;;;;;;7.61;nan;101675.84;5050416;28;20399;-86
2023/12/08 06:15:00;;;;;;;;;;;;;;;7.58;nan;101685.09;5047917;28;19925;-88
2023/12/08 06:17:28;;;;;;;;;;;;;;;7.58;nan;101691.25;5043064;28;19932;-88
2023/12/08 06:19:54;;;;;;;;;;;;;;;7.55;nan;101694.31;5040664;28;19920;-86
2023/12/08 06:22:19;;;;;;;;;;;;;;;7.49;nan;101694.31;5040634;28;20274;-89
2023/12/08 06:24:45;;;;;;;;;;;;;;;7.45;nan;101701.91;5042104;28;19917;-89
2023/12/08 06:27:10;;;;;;;;;;;;;;;7.36;nan;101708.47;5040268;28;19921;-89
2023/12/08 06:29:35;;;;;;;;;;;;;;;7.28;nan;101708.66;5046538;28;20372;-88
2023/12/08 06:32:01;;;;;;;;;;;;;;;7.21;nan;101690.00;5047315;28;19987;-88
2023/12/08 06:34:26;;;;;;;;;;;;;;;7.23;nan;101689.78;5045235;28;19917;-90
2023/12/08 06:36:51;;;;;;;;;;;;;;;7.08;nan;101689.94;5041560;28;20003;-91
2023/12/08 06:39:17;;;;;;;;;;;;;;;7.06;nan;101689.34;5044204;28;19917;-90
2023/12/08 06:41:43;;;;;;;;;;;;;;;7.09;nan;101702.25;5042426;28;20373;-91
2023/12/08 06:44:08;;;;;;;;;;;;;;;7.11;nan;101681.56;5048760;28;19963;-91
2023/12/08 06:46:33;;;;;;;;;;;;;;;7.16;nan;101692.41;5047669;28;19921;-90
2023/12/08 06:48:59;;;;;;;;;;;;;;;7.21;nan;101699.81;5038304;28;19917;-90
2023/12/08 06:51:24;;;;;;;;;;;;;;;7.27;nan;101707.81;5049471;28;19920;-91
2023/12/08 06:53:49;;;;;;;;;;;;;;;7.23;nan;101706.59;5048867;28;19921;-91
2023/12/08 06:56:15;;;;;;;;;;;;;;;7.16;nan;101696.94;5048179;28;19919;-92
2023/12/08 06:58:40;;;;;;;;;;;;;;;7.12;nan;101703.69;5050562;28;19917;-91
2023/12/08 07:01:06;;;;;;;;;;;;;;;7.11;nan;101702.88;5048594;28;20515;-91
2023/12/08 07:03:31;;;;;;;;;;;;;;;7.09;nan;101704.91;5033839;28;19971;-90
2023/12/08 07:05:56;;;;;;;;;;;;;;;7.03;nan;101705.72;5041657;28;21224;-92
2023/12/08 07:08:22;;;;;;;;;;;;;;;6.93;nan;101715.94;5048012;28;19917;-91
2023/12/08 07:10:47;;;;;;;;;;;;;;;6.89;nan;101709.38;5048833;28;19917;-91
2023/12/08 07:13:12;;;;;;;;;;;;;;;6.90;nan;101716.34;5052262;28;19923;-92
2023/12/08 07:15:38;;;;;;;;;;;;;;;6.95;nan;101714.72;5045538;28;19966;-92
2023/12/08 07:18:04;;;;;;;;;;;;;;;6.93;nan;101715.94;5043272;28;19948;-92
2023/12/08 07:20:29;;;;;;;;;;;;;;;6.92;nan;101711.63;5028247;28;19917;-92
2023/12/08 07:22:55;;;;;;;;;;;;;;;6.92;nan;101709.78;5040400;28;19978;-93
2023/12/08 07:25:21;;;;;;;;;;;;;;;6.95;nan;101698.72;5042299;28;19974;-93
2023/12/08 07:27:46;;;;;;;;;;;;;;;6.93;nan;101694.63;5045218;28;19936;-91
2023/12/08 07:30:12;;;;;;;;;;;;;;;6.95;nan;101692.56;5051621;28;19923;-91
2023/12/08 07:32:37;;;;;;;;;;;;;;;6.95;nan;101696.06;5052820;28;19956;-91
2023/12/08 07:35:02;;;;;;;;;;;;;;;6.99;nan;101699.13;5031938;28;19928;-92
2023/12/08 07:37:28;;;;;;;;;;;;;;;6.97;nan;101704.66;5041472;28;20467;-92
2023/12/08 07:39:53;;;;;;;;;;;;;;;6.99;nan;101693.81;5052279;28;20516;-93
2023/12/08 07:42:18;;;;;;;;;;;;;;;6.98;nan;101695.66;5051811;28;20438;-92
2023/12/08 07:44:44;;;;;;;;;;;;;;;6.93;nan;101706.09;5045863;28;19917;-93
2023/12/08 07:47:10;;;;;;;;;;;;;;;6.89;nan;101710.19;5043939;28;19932;-92
2023/12/08 07:49:35;;;;;;;;;;;;;;;6.89;nan;101707.53;5041357;28;19917;-92
2023/12/08 07:52:00;;;;;;;;;;;;;;;6.92;nan;101715.13;5047167;28;19913;-92
2023/12/08 07:54:31;;;;;;;;;;;;;;;6.96;nan;101705.69;5053352;28;19924;-92
2023/12/08 07:56:57;;;;;;;;;;;;;;;6.97;nan;101706.50;5040802;28;20356;-92
2023/12/08 07:59:22;;;;;;;;;;;;;;;7.01;nan;101710.44;5039894;28;20016;-92
2023/12/08 08:01:47;;;;;;;;;;;;;;;7.04;nan;101701.22;5055784;28;19920;-92
2023/12/08 08:04:13;;;;;;;;;;;;;;;7.09;nan;101693.44;5050805;28;19920;-92
2023/12/08 08:06:39;;;;;;;;;;;;;;;7.07;nan;101684.81;5036912;28;19922;-93
2023/12/08 08:09:04;;;;;;;;;;;;;;;7.01;nan;101680.31;5053296;28;19917;-91
2023/12/08 08:11:30;;;;;;;;;;;;;;;7.01;nan;101685.66;5053465;28;20443;-92
2023/12/08 08:13:55;;;;;;;;;;;;;;;7.01;nan;101681.13;5041809;28;19916;-93
2023/12/08 08:16:20;;;;;;;;;;;;;;;6.99;nan;101691.16;5046372;28;20404;-93
2023/12/08 08:18:46;;;;;;;;;;;;;;;7.01;nan;101696.31;5045382;28;20389;-92
2023/12/08 08:21:11;;;;;;;;;;;;;;;7.01;nan;101686.47;5052868;28;19948;-93
2023/12/08 08:23:36;;;;;;;;;;;;;;;7.01;nan;101690.97;5049168;28;20320;-93
2023/12/08 08:26:02;;;;;;;;;;;;;;;6.97;nan;101688.69;5054905;28;19986;-93
2023/12/08 08:28:28;;;;;;;;;;;;;;;6.89;nan;101688.88;5049620;28;19960;-91
2023/12/08 08:30:53;;;;;;;;;;;;;;;6.90;nan;101690.53;5034507;28;19920;-93
2023/12/08 08:33:18;;;;;;;;;;;;;;;6.91;nan;101704.66;5037806;28;20776;-93
2023/12/08 08:35:44;;;;;;;;;;;;;;;6.94;nan;101704.25;5043552;28;20343;-93
2023/12/08 08:38:11;;;;;;;;;;;;;;;6.98;nan;101702.81;5043135;28;20677;-93
2023/12/08 08:40:36;;;;;;;;;;;;;;;6.96;nan;101700.38;5040559;28;19923;-94
2023/12/08 08:43:02;;;;;;;;;;;;;;;6.94;nan;101685.59;5036847;28;19917;-94
2023/12/08 08:45:27;;;;;;;;;;;;;;;6.92;nan;101696.47;5021402;28;19912;-94
2023/12/08 08:47:52;;;;;;;;;;;;;;;6.94;nan;101689.09;5040940;28;20473;-93
2023/12/08 08:50:18;;;;;;;;;;;;;;;6.97;nan;101690.53;5044872;28;19928;-94
2023/12/08 08:52:43;;;;;;;;;;;;;;;6.98;nan;101682.34;5050711;28;19917;-94
2023/12/08 08:55:10;;;;;;;;;;;;;;;6.96;nan;101684.38;5025299;28;19917;-94
2023/12/08 08:57:35;;;;;;;;;;;;;;;6.91;nan;101678.03;5043055;28;19944;-95
2023/12/08 09:00:01;;;;;;;;;;;;;;;6.90;nan;101666.53;5041682;28;19913;-94
2023/12/08 09:02:26;;;;;;;;;;;;;;;6.98;nan;101645.03;5048455;28;20000;-93
2023/12/08 09:04:51;;;;;;;;;;;;;;;7.07;nan;101655.53;5044797;28;20377;-94
2023/12/08 09:07:17;;;;;;;;;;;;;;;7.09;nan;101648.13;5041460;28;20284;-95
2023/12/08 09:09:42;;;;;;;;;;;;;;;7.09;nan;101651.63;5044134;28;19913;-93
2023/12/08 09:12:08;;;;;;;;;;;;;;;7.13;nan;101649.38;5043432;28;19917;-94
2023/12/08 09:14:33;;;;;;;;;;;;;;;7.17;nan;101655.94;5042298;28;19998;-95
2023/12/08 09:17:02;;;;;;;;;;;;;;;7.15;nan;101655.31;5043049;28;19964;-94
2023/12/08 09:19:28;;;;;;;;;;;;;;;7.18;nan;101661.09;5042241;28;19990;-94
2023/12/08 09:21:53;;;;;;;;;;;;;;;7.22;nan;101656.16;5022648;28;20429;-93
2023/12/08 09:24:18;;;;;;;;;;;;;;;7.28;nan;101655.34;5033626;28;19963;-94
2023/12/08 09:26:44;;;;;;;;;;;;;;;7.35;nan;101648.16;5045446;28;19921;-94
2023/12/08 09:29:09;;;;;;;;;;;;;;;7.32;nan;101648.56;5052598;28;20277;-95
2023/12/08 09:31:34;;;;;;;;;;;;;;;7.22;nan;101651.66;5047147;28;20368;-94
2023/12/08 09:34:00;;;;;;;;;;;;;;;7.18;nan;101647.75;5039283;28;19951;-94
2023/12/08 09:36:25;;;;;;;;;;;;;;;7.13;nan;101644.03;5030383;28;19920;-95
2023/12/08 09:38:51;;;;;;;;;;;;;;;7.12;nan;101632.56;5049602;28;19936;-95
2023/12/08 09:41:17;;;;;;;;;;;;;;;7.09;nan;101632.97;5044412;28;19920;-94
2023/12/08 09:43:49;;;;;;;;;;;;;;;7.03;nan;101624.97;5038613;28;20000;-94
2023/12/08 09:46:15;;;;;;;;;;;;;;;6.94;nan;101622.50;5043688;28;19951;-95
2023/12/08 09:48:43;;;;;;;;;;;;;;;6.97;nan;101614.09;5049660;28;19924;-94
2023/12/08 09:51:09;;;;;;;;;;;;;;;7.09;nan;101608.16;5044666;28;19921;-94
2023/12/08 09:53:36;;;;;;;;;;;;;;;7.16;nan;101606.31;5045210;28;20373;-94
2023/12/08 09:56:02;;;;;;;;;;;;;;;7.21;nan;101593.22;5062347;28;19970;-95
2023/12/08 09:58:28;;;;;;;;;;;;;;;7.25;nan;101597.09;5049944;28;19981;-95
2023/12/08 10:00:56;;;;;;;;;;;;;;;7.29;nan;101601.00;5046483;28;20008;-95
2023/12/08 10:03:22;;;;;;;;;;;;;;;7.31;nan;101590.13;5046586;28;20071;-95
2023/12/08 10:05:48;;;;;;;;;;;;;;;7.30;nan;101593.81;5047366;28;20464;-94
2023/12/08 10:08:14;;;;;;;;;;;;;;;7.31;nan;101590.13;5049678;28;20001;-95
2023/12/08 10:10:39;;;;;;;;;;;;;;;7.30;nan;101583.97;5051456;28;19916;-96
2023/12/08 10:13:05;;;;;;;;;;;;;;;7.32;nan;101591.75;5043050;28;19924;-95
2023/12/08 10:15:31;;;;;;;;;;;;;;;7.35;nan;101584.16;5046327;28;19917;-95
2023/12/08 10:17:56;;;;;;;;;;;;;;;7.36;nan;101572.50;5045211;28;20515;-95
2023/12/08 10:20:23;;;;;;;;;;;;;;;7.38;nan;101574.97;5044404;28;20328;-94
2023/12/08 10:22:51;;;;;;;;;;;;;;;7.36;nan;101569.84;5050042;28;19920;-95
2023/12/08 10:25:20;;;;;;;;;;;;;;;7.30;nan;101573.31;5038256;28;19916;-95
2023/12/08 10:27:52;;;;;;;;;;;;;;;7.31;nan;101558.13;5046744;28;19929;-95
2023/12/08 10:30:21;;;;;;;;;;;;;;;7.33;nan;101559.56;5051396;28;19943;-96
2023/12/08 10:32:47;;;;;;;;;;;;;;;7.32;nan;101560.59;5044692;28;19970;-95
2023/12/08 10:35:12;;;;;;;;;;;;;;;7.27;nan;101552.41;5049436;28;19917;-95
2023/12/08 10:37:41;;;;;;;;;;;;;;;7.25;nan;101546.47;5050009;28;20345;-94
2023/12/08 10:40:08;;;;;;;;;;;;;;;7.29;nan;101550.34;5035842;28;19920;-94
2023/12/08 10:42:33;;;;;;;;;;;;;;;7.34;nan;101547.06;5048835;28;20554;-95
2023/12/08 10:44:59;;;;;;;;;;;;;;;7.38;nan;101543.78;5026697;28;20007;-95
2023/12/08 10:47:24;;;;;;;;;;;;;;;7.40;nan;101539.06;5033813;28;19924;-95
2023/12/08 10:49:50;;;;;;;;;;;;;;;7.38;nan;101533.13;5038054;28;19939;-95
2023/12/08 10:52:15;;;;;;;;;;;;;;;7.41;nan;101522.03;5049420;28;19943;-95
2023/12/08 10:54:41;;;;;;;;;;;;;;;7.44;nan;101524.28;5044406;28;19916;-94
2023/12/08 10:57:07;;;;;;;;;;;;;;;7.45;nan;101520.59;5043522;28;19920;-95
2023/12/08 10:59:33;;;;;;;;;;;;;;;7.48;nan;101517.50;5049150;28;19913;-94
2023/12/08 11:02:00;;;;;;;;;;;;;;;7.53;nan;101512.34;5046016;28;19921;-94
2023/12/08 11:04:26;;;;;;;;;;;;;;;7.56;nan;101493.28;5027844;28;20167;-96
2023/12/08 11:07:03;;;;;;;;;;;;;;;7.57;nan;101499.44;5039734;28;20424;-95
2023/12/08 11:09:31;;;;;;;;;;;;;;;7.64;nan;101504.75;5049409;28;19917;-95
2023/12/08 11:11:58;;;;;;;;;;;;;;;7.68;nan;101505.94;5052447;28;19917;-95
2023/12/08 11:14:26;;;;;;;;;;;;;;;7.69;nan;101497.75;5044068;28;19924;-96
2023/12/08 11:16:57;;;;;;;;;;;;;;;7.72;nan;101497.34;5050516;28;20016;-96
2023/12/08 11:19:23;;;;;;;;;;;;;;;7.80;nan;101502.44;5042372;28;19996;-95
2023/12/08 11:21:48;;;;;;;;;;;;;;;7.76;nan;101485.22;5048698;28;20023;-94
2023/12/08 11:24:14;;;;;;;;;;;;;;;7.75;nan;101486.25;5047926;28;20436;-96
2023/12/08 11:26:39;;;;;;;;;;;;;;;7.71;nan;101489.53;5051335;28;19917;-96
2023/12/08 11:29:23;;;;;;;;;;;;;;;7.69;nan;101483.59;5046847;28;19924;-95
2023/12/08 11:31:53;;;;;;;;;;;;;;;7.71;nan;101485.00;5049062;28;19966;-95
2023/12/08 11:34:30;;;;;;;;;;;;;;;7.70;nan;101486.03;5054769;28;20070;-95
2023/12/08 11:36:57;;;;;;;;;;;;;;;7.74;nan;101489.13;5047875;28;19970;-96
2023/12/08 11:39:28;;;;;;;;;;;;;;;7.80;nan;101483.75;5046964;28;19920;-95
2023/12/08 11:41:54;;;;;;;;;;;;;;;7.83;nan;101487.84;5049412;28;19948;-96
2023/12/08 11:44:19;;;;;;;;;;;;;;;7.88;nan;101472.84;5051165;28;20422;-96
2023/12/08 11:46:45;;;;;;;;;;;;;;;7.95;nan;101467.47;5035273;28;19920;-95
2023/12/08 11:49:11;;;;;;;;;;;;;;;7.98;nan;101453.72;5040450;28;19966;-96
2023/12/08 11:51:36;;;;;;;;;;;;;;;7.99;nan;101452.66;5050977;28;19916;-96
2023/12/08 11:54:05;;;;;;;;;;;;;;;8.03;nan;101448.53;5028182;28;20574;-96
2023/12/08 11:56:42;;;;;;;;;;;;;;;8.03;nan;101451.22;5051114;28;19928;-95
2023/12/08 11:59:07;;;;;;;;;;;;;;;8.02;nan;101459.44;5052097;28;20369;-95
2023/12/08 12:01:35;;;;;;;;;;;;;;;8.01;nan;101463.94;5035686;28;19924;-96
2023/12/08 12:04:01;;;;;;;;;;;;;;;8.04;nan;101460.84;5031419;28;19925;-96
2023/12/08 12:06:27;;;;;;;;;;;;;;;8.08;nan;101464.75;5045086;28;19924;-96
2023/12/08 12:08:53;;;;;;;;;;;;;;;8.11;nan;101458.16;5055397;28;20024;-96
2023/12/08 12:11:20;;;;;;;;;;;;;;;8.12;nan;101463.28;5048795;28;20326;-96
2023/12/08 12:13:45;;;;;;;;;;;;;;;8.11;nan;101458.16;5053563;28;19921;-95
2023/12/08 12:16:11;;;;;;;;;;;;;;;8.12;nan;101465.13;5053059;28;19947;-96
2023/12/08 12:18:36;;;;;;;;;;;;;;;8.00;nan;101454.31;5047529;28;19921;-95
2023/12/08 12:21:01;;;;;;;;;;;;;;;8.00;nan;101456.97;5038389;28;19960;-95
2023/12/08 12:23:27;;;;;;;;;;;;;;;7.97;nan;101452.06;5044723;28;19971;-95
2023/12/08 12:25:52;;;;;;;;;;;;;;;7.97;nan;101452.06;5044420;28;19928;-96
2023/12/08 12:28:18;;;;;;;;;;;;;;;7.99;nan;101451.84;5050327;28;20411;-96
2023/12/08 12:30:46;;;;;;;;;;;;;;;7.97;nan;101456.59;5044544;28;19956;-95
2023/12/08 12:33:12;;;;;;;;;;;;;;;7.98;nan;101448.38;5043982;28;19917;-96
2023/12/08 12:35:37;;;;;;;;;;;;;;;7.95;nan;101454.13;5052025;28;19939;-95
2023/12/08 12:38:03;;;;;;;;;;;;;;;7.94;nan;101449.03;5034631;28;19917;-94
2023/12/08 12:40:28;;;;;;;;;;;;;;;7.91;nan;101452.94;5049554;28;20250;-95
2023/12/08 12:42:54;;;;;;;;;;;;;;;7.93;nan;101444.72;5044883;28;20634;-95
2023/12/08 12:45:29;;;;;;;;;;;;;;;7.90;nan;101435.28;5048969;28;19916;-95
2023/12/08 12:47:59;;;;;;;;;;;;;;;7.90;nan;101432.63;5054249;28;19921;-96
2023/12/08 12:50:24;;;;;;;;;;;;;;;7.90;nan;101429.94;5054342;28;19917;-95
2023/12/08 12:52:49;;;;;;;;;;;;;;;7.89;nan;101426.44;5043653;28;19927;-94
2023/12/08 12:55:25;;;;;;;;;;;;;;;7.93;nan;101432.19;5045168;28;20016;-94
2023/12/08 12:57:50;;;;;;;;;;;;;;;7.96;nan;101421.09;5044425;28;19928;-95
2023/12/08 13:00:48;;;;;;;;;;;;;;;8.01;nan;101425.78;5024517;28;19996;-94